Pacific - Georgia Basin: Past 24 Hour Conditions

 

Vancouver Int'l Airport

01:00 AM PDT 31 August 2015
Disclaimer

This table is a summary of hourly weather conditions for the past 24 hours.
Please note that these observations might not always be representative of weather conditions over their associated marine area.

Date / Time
(PDT)
Wind(knots) Conditions Visibility(km) Pressure(kPa) Air tempC) Relative humidity(%) Dew pointC)
31 August 2015
1:00 ENE 12 Light Rain 13 101.2 15 91 13
0:00 E 11 Mostly Cloudy 24 101.2 15 89 13
30 August 2015
23:00 E 11 Rain 13 101.2 15 88 13
22:00 ESE 7 Light Rain 16 101.3 15 81 12
21:00 SE 7 Light Rain 19 101.3 16 79 12
20:00 SSE 9 Light Rain 19 101.3 16 76 12
19:00 S 13 Mostly Cloudy 32 101.2 17 67 11
18:00 S 15 gust 21 Mostly Cloudy 32 101.2 18 61 11
17:00 SSE 15 Mostly Cloudy 32 101.2 19 55 10
16:00 SSE 12 Mostly Cloudy 32 101.2 19 57 10
15:00 SSE 15 gust 21 Mostly Cloudy 32 101.2 19 57 11
14:00 SSE 17 gust 22 Mostly Cloudy 32 101.2 19 63 11
13:00 SSE 13 Mostly Cloudy 32 101.2 19 66 12
12:00 S 12 Partly Cloudy 32 101.1 19 65 12
11:00 SSE 9 Mostly Cloudy 32 101.1 17 71 12
10:00 SE 9 gust 16 Mostly Cloudy 24 101.1 16 80 12
9:00 SSE 8 Mostly Cloudy 24 101.0 15 84 12
8:00 SSE 9 Mostly Cloudy 19 100.9 14 88 13
7:00 SE 8 Light Rain 16 100.8 14 92 13
6:00 SSE 7 Mostly Cloudy 19 100.8 14 92 13
5:00 E 6 Mostly Cloudy 19 100.7 14 92 13
4:00 ESE 10 Mostly Cloudy 19 100.7 14 92 13
3:00 ESE 8 Mostly Cloudy 19 100.6 14 93 13
2:00 ESE 7 Mostly Cloudy 19 100.6 15 93 14
1:00 ESE 7 Light Rain 19 100.6 15 91 14

Zoom-in to make a selection

Map of Pacific - Georgia Basin marine weather areas Tsawwassen Ferry Terminal Sentry Shoal - 46131 Halibut Bank - 46146 La Perouse Bank - 46206 Discovery Island Esquimalt Harbour Kelp Reefs Malahat Race Rocks Lightstation Saturna Island Sheringham Point University of Victoria Victoria Gonzales Victoria Int'l Airport Ballenas Islands Campbell River Airport Comox Airport Entrance Island Fanny Island Nanaimo Airport Sisters Islets Estevan Point Tofino Airport Grief Point Powell River Airport Sechelt Point Atkinson Sand Heads Lightstation Vancouver Harbour Vancouver Int'l Airport West Vancouver Port Alberni Howe Sound - Pam Rocks Squamish Airport
Legend:
buoy Buoy
land station Land Station

Pacific - Georgia Basin Area

Another Region

What we are doing

Date modified: